Lake Panorama, Iowa
Current Conditions -  °F | °C
As of 7:15 PM on Thursday 27 Nov 2014 (Local Time) from KPRO Reporting Station
Overcast Overcast  
Wind Chill:   Ceiling: 10000
Heat Index: 12°   Visibility: 10mi
Dew Point:   Wind: 9mph
Humidity: 75%   Direction: 150°SSE
Pressure: 30.36"   Gusts: NA
Location:  41.6992°N, 94.332°W
Report Text: KPRO 280115Z AUTO 15008KT 10SM SCT080 OVC100 M11/M15 A3036 RMK AO2 T11101147
Loading
Personal Weather Stations






























Interactive Weather Map New forecast layout! Learn more

10-Day Weather Forecast

Advertisements
Track Severe Weather on mobile